Time;durP1;ratioP1;P1;durP2;ratioP2;P2;SDS_P1;SDS_P2;PMS_P1;PMS_P2;Temp;Humidity;BMP_temperature;BMP_pressure;BME280_temperature;BME280_humidity;BME280_pressure;Samples;Min_cycle;Max_cycle;Signal;HPM_P1;HPM_P2
2021/10/09 00:00:11;;;;;;;18.00;9.90;;;;;;;;;;5071194;28;20334;-77
2021/10/09 00:02:38;;;;;;;14.57;10.40;;;;;;;;;;5071758;28;20305;-78
2021/10/09 00:05:06;;;;;;;15.50;10.63;;;;;;;;;;5071957;28;20226;-78
2021/10/09 00:07:33;;;;;;;15.77;10.10;;;;;;;;;;5072098;28;20289;-77
2021/10/09 00:10:04;;;;;;;15.07;10.47;;;;;;;;;;5072021;28;20289;-77
2021/10/09 00:12:32;;;;;;;13.27;9.50;;;;;;;;;;5071969;28;20244;-77
2021/10/09 00:14:59;;;;;;;14.70;10.07;;;;;;;;;;5071780;28;20234;-77
2021/10/09 00:17:28;;;;;;;15.10;9.77;;;;;;;;;;5071774;28;20235;-76
2021/10/09 00:19:56;;;;;;;15.33;10.73;;;;;;;;;;5078391;28;20225;-77
2021/10/09 00:22:23;;;;;;;15.30;10.10;;;;;;;;;;5078854;28;20592;-77
2021/10/09 00:24:51;;;;;;;15.73;10.63;;;;;;;;;;5088942;28;20687;-77
2021/10/09 00:27:20;;;;;;;16.40;10.23;;;;;;;;;;5082652;28;20201;-77
2021/10/09 00:29:47;;;;;;;14.80;10.37;;;;;;;;;;5088856;28;20740;-76
2021/10/09 00:32:14;;;;;;;14.13;10.20;;;;;;;;;;5091358;28;20612;-77
2021/10/09 00:34:41;;;;;;;15.77;10.30;;;;;;;;;;5084209;28;20285;-77
2021/10/09 00:37:08;;;;;;;14.47;10.40;;;;;;;;;;5072023;28;20284;-77
2021/10/09 00:39:36;;;;;;;14.93;10.10;;;;;;;;;;5078898;28;20244;-77
2021/10/09 00:42:04;;;;;;;14.97;10.00;;;;;;;;;;5092201;28;20463;-77
2021/10/09 00:44:33;;;;;;;17.93;11.03;;;;;;;;;;5091927;28;20202;-77
2021/10/09 00:47:01;;;;;;;14.20;10.53;;;;;;;;;;5091075;28;20213;-77
2021/10/09 00:49:29;;;;;;;15.30;10.63;;;;;;;;;;5071885;28;20286;-78
2021/10/09 00:51:58;;;;;;;14.17;10.00;;;;;;;;;;5072151;28;20285;-78
2021/10/09 00:54:25;;;;;;;14.53;10.00;;;;;;;;;;5077691;28;20210;-77
2021/10/09 00:56:53;;;;;;;17.87;10.43;;;;;;;;;;5084816;28;20654;-77
2021/10/09 00:59:21;;;;;;;15.77;10.90;;;;;;;;;;5091471;28;20205;-77
2021/10/09 01:01:50;;;;;;;17.07;11.13;;;;;;;;;;5092145;28;20312;-77
2021/10/09 01:04:19;;;;;;;14.57;10.40;;;;;;;;;;5084630;28;20596;-77
2021/10/09 01:06:46;;;;;;;14.60;10.80;;;;;;;;;;5074492;28;20273;-76
2021/10/09 01:09:13;;;;;;;15.10;10.27;;;;;;;;;;5091548;28;20292;-77
2021/10/09 01:11:41;;;;;;;16.43;10.27;;;;;;;;;;5090761;28;20216;-77
2021/10/09 01:14:08;;;;;;;14.60;10.53;;;;;;;;;;5088587;28;20233;-76
2021/10/09 01:16:35;;;;;;;17.50;11.07;;;;;;;;;;5078018;28;20630;-77
2021/10/09 01:19:04;;;;;;;15.30;11.13;;;;;;;;;;5091578;28;20233;-77
2021/10/09 01:21:41;;;;;;;17.27;11.33;;;;;;;;;;5091040;28;20218;-77
2021/10/09 01:24:08;;;;;;;15.10;10.43;;;;;;;;;;5076282;28;20247;-77
2021/10/09 01:26:35;;;;;;;15.77;10.80;;;;;;;;;;5073294;28;20285;-77
2021/10/09 01:29:02;;;;;;;14.37;10.53;;;;;;;;;;5076938;28;20632;-77
2021/10/09 01:31:29;;;;;;;16.53;10.87;;;;;;;;;;5082457;28;20323;-77
2021/10/09 01:33:57;;;;;;;16.33;10.80;;;;;;;;;;5071509;28;20288;-77
2021/10/09 01:36:24;;;;;;;15.47;11.33;;;;;;;;;;5071900;28;20288;-77
2021/10/09 01:38:53;;;;;;;17.60;11.03;;;;;;;;;;5080286;28;20282;-77
2021/10/09 01:41:21;;;;;;;15.10;10.60;;;;;;;;;;5091034;28;20268;-77
2021/10/09 01:43:48;;;;;;;19.93;11.93;;;;;;;;;;5092294;28;20292;-77
2021/10/09 01:46:16;;;;;;;18.20;11.37;;;;;;;;;;5074990;28;20289;-77
2021/10/09 01:48:43;;;;;;;14.30;10.90;;;;;;;;;;5075402;28;20233;-77
2021/10/09 01:51:11;;;;;;;13.97;10.53;;;;;;;;;;5091541;28;20624;-77
2021/10/09 01:53:40;;;;;;;16.20;11.17;;;;;;;;;;5075192;28;20286;-77
2021/10/09 01:56:09;;;;;;;17.30;11.37;;;;;;;;;;5074862;28;20250;-77
2021/10/09 01:58:36;;;;;;;16.13;10.80;;;;;;;;;;5075589;28;20703;-77
2021/10/09 02:01:03;;;;;;;19.20;11.77;;;;;;;;;;5083158;28;20231;-77
2021/10/09 02:03:31;;;;;;;16.30;11.17;;;;;;;;;;5094194;28;20218;-77
2021/10/09 02:05:58;;;;;;;15.20;11.33;;;;;;;;;;5094862;28;20202;-76
2021/10/09 02:08:25;;;;;;;17.93;11.23;;;;;;;;;;5078023;28;20231;-77
2021/10/09 02:10:56;;;;;;;16.33;10.97;;;;;;;;;;5074748;28;20203;-77
2021/10/09 02:13:28;;;;;;;16.97;11.20;;;;;;;;;;5082694;28;20194;-77
2021/10/09 02:16:00;;;;;;;15.67;11.60;;;;;;;;;;5090695;28;20195;-77
2021/10/09 02:24:25;;;;;;;18.33;12.37;;;;;;;;;;5074380;28;20217;-77
2021/10/09 02:26:53;;;;;;;17.00;11.93;;;;;;;;;;5074384;28;20240;-77
2021/10/09 02:29:21;;;;;;;18.27;11.17;;;;;;;;;;5075780;28;20286;-77
2021/10/09 02:31:49;;;;;;;17.77;12.00;;;;;;;;;;5080728;28;20279;-77
2021/10/09 02:34:16;;;;;;;19.83;11.90;;;;;;;;;;5080751;28;20227;-77
2021/10/09 02:36:43;;;;;;;17.47;11.17;;;;;;;;;;5094775;28;20238;-77
2021/10/09 02:39:11;;;;;;;20.17;12.30;;;;;;;;;;5091171;28;20237;-77
2021/10/09 02:41:38;;;;;;;20.90;12.27;;;;;;;;;;5073715;28;20334;-77
2021/10/09 02:44:05;;;;;;;18.27;12.10;;;;;;;;;;5074319;28;20294;-77
2021/10/09 02:46:34;;;;;;;18.83;13.03;;;;;;;;;;5073269;28;20666;-77
2021/10/09 02:49:01;;;;;;;20.37;13.23;;;;;;;;;;5073701;28;20369;-77
2021/10/09 02:51:28;;;;;;;20.63;13.53;;;;;;;;;;5073311;28;20608;-77
2021/10/09 02:53:55;;;;;;;20.17;13.17;;;;;;;;;;5073662;28;20840;-77
2021/10/09 02:56:23;;;;;;;22.07;13.70;;;;;;;;;;5073564;28;20249;-77
2021/10/09 02:58:50;;;;;;;20.27;12.67;;;;;;;;;;5073767;28;20234;-77
2021/10/09 03:01:17;;;;;;;21.90;14.67;;;;;;;;;;5073590;28;20301;-77
2021/10/09 03:03:45;;;;;;;24.17;13.80;;;;;;;;;;5073568;28;20219;-77
2021/10/09 03:06:13;;;;;;;20.00;13.70;;;;;;;;;;5074031;28;20203;-77
2021/10/09 03:08:40;;;;;;;22.33;13.63;;;;;;;;;;5073234;28;20286;-77
2021/10/09 03:11:07;;;;;;;19.83;12.70;;;;;;;;;;5086765;28;20290;-77
2021/10/09 03:13:34;;;;;;;19.07;12.83;;;;;;;;;;5073657;28;20282;-77
2021/10/09 03:16:01;;;;;;;18.83;12.17;;;;;;;;;;5073779;28;20290;-77
2021/10/09 03:18:28;;;;;;;19.53;13.43;;;;;;;;;;5086159;28;20200;-77
2021/10/09 03:20:57;;;;;;;19.07;12.33;;;;;;;;;;5077938;28;20329;-78
2021/10/09 03:23:24;;;;;;;20.07;12.40;;;;;;;;;;5073235;28;20289;-77
2021/10/09 03:25:51;;;;;;;21.57;13.50;;;;;;;;;;5093253;28;20633;-76
2021/10/09 03:28:18;;;;;;;23.00;13.80;;;;;;;;;;5082563;28;20283;-77
2021/10/09 03:30:46;;;;;;;19.90;13.27;;;;;;;;;;5073276;28;20250;-77
2021/10/09 03:33:13;;;;;;;21.27;13.33;;;;;;;;;;5088814;28;20194;-77
2021/10/09 03:35:40;;;;;;;20.67;13.43;;;;;;;;;;5091874;28;20289;-77
2021/10/09 03:38:08;;;;;;;18.90;12.63;;;;;;;;;;5072721;28;20205;-77
2021/10/09 03:40:36;;;;;;;20.57;13.03;;;;;;;;;;5087242;28;20731;-77
2021/10/09 03:43:07;;;;;;;24.00;13.30;;;;;;;;;;5093280;28;20199;-77
2021/10/09 03:45:37;;;;;;;20.87;13.73;;;;;;;;;;5079088;28;20205;-77
2021/10/09 03:53:38;;;;;;;19.77;12.70;;;;;;;;;;5080958;28;20320;-76
2021/10/09 03:56:05;;;;;;;21.33;12.53;;;;;;;;;;5081589;28;20230;-77
2021/10/09 03:58:33;;;;;;;17.33;12.37;;;;;;;;;;5077925;28;20231;-77
2021/10/09 04:01:00;;;;;;;17.80;12.50;;;;;;;;;;5072371;28;20813;-77
2021/10/09 04:03:27;;;;;;;19.67;12.93;;;;;;;;;;5072691;28;20231;-75
2021/10/09 04:05:54;;;;;;;19.43;13.60;;;;;;;;;;5083081;28;20219;-76
2021/10/09 04:08:22;;;;;;;24.03;14.43;;;;;;;;;;5083348;28;20286;-75
2021/10/09 04:10:50;;;;;;;23.93;14.23;;;;;;;;;;5089657;28;20285;-75
2021/10/09 04:13:17;;;;;;;22.53;14.07;;;;;;;;;;5072029;28;20758;-75
2021/10/09 04:15:44;;;;;;;21.47;14.60;;;;;;;;;;5081952;28;20248;-75
2021/10/09 04:18:12;;;;;;;22.57;14.93;;;;;;;;;;5092355;28;20285;-76
2021/10/09 04:20:39;;;;;;;23.70;14.67;;;;;;;;;;5092209;28;20238;-76
2021/10/09 04:23:06;;;;;;;23.80;14.03;;;;;;;;;;5092687;28;20310;-76
2021/10/09 04:25:34;;;;;;;21.10;14.07;;;;;;;;;;5087038;28;20287;-76
2021/10/09 04:28:02;;;;;;;21.90;14.50;;;;;;;;;;5076395;28;20257;-77
2021/10/09 04:30:29;;;;;;;23.47;15.00;;;;;;;;;;5072004;28;20226;-76
2021/10/09 04:32:57;;;;;;;22.77;14.57;;;;;;;;;;5072695;28;20228;-76
2021/10/09 04:35:30;;;;;;;20.23;13.87;;;;;;;;;;5071566;28;20721;-76
2021/10/09 04:37:57;;;;;;;20.80;12.80;;;;;;;;;;5071837;28;20206;-77
2021/10/09 04:40:24;;;;;;;18.53;11.73;;;;;;;;;;5076707;28;20257;-77
2021/10/09 04:42:51;;;;;;;14.67;10.27;;;;;;;;;;5072690;28;20310;-77
2021/10/09 04:45:20;;;;;;;14.80;10.57;;;;;;;;;;5082001;28;20298;-77
2021/10/09 04:47:47;;;;;;;15.83;10.80;;;;;;;;;;5092124;28;20289;-77
2021/10/09 04:50:14;;;;;;;16.60;10.43;;;;;;;;;;5091608;28;20281;-77
2021/10/09 04:52:42;;;;;;;15.87;10.90;;;;;;;;;;5084833;28;20281;-77
2021/10/09 04:55:09;;;;;;;14.30;10.90;;;;;;;;;;5091911;28;20241;-76
2021/10/09 04:57:36;;;;;;;17.27;11.37;;;;;;;;;;5078228;28;20455;-76
2021/10/09 05:00:06;;;;;;;17.57;11.73;;;;;;;;;;5091162;28;20281;-77
2021/10/09 05:02:35;;;;;;;16.63;11.67;;;;;;;;;;5070867;28;20227;-76
2021/10/09 05:05:02;;;;;;;17.70;12.33;;;;;;;;;;5070128;28;20216;-77
2021/10/09 05:07:29;;;;;;;17.93;11.80;;;;;;;;;;5071069;28;20213;-77
2021/10/09 05:09:56;;;;;;;20.80;13.80;;;;;;;;;;5070450;28;20225;-76
2021/10/09 05:12:23;;;;;;;21.90;13.57;;;;;;;;;;5073742;28;20738;-76
2021/10/09 05:14:51;;;;;;;24.13;13.60;;;;;;;;;;5083567;28;20763;-76
2021/10/09 05:17:18;;;;;;;22.83;14.07;;;;;;;;;;5084517;28;20288;-76
2021/10/09 05:19:47;;;;;;;20.17;13.33;;;;;;;;;;5085486;28;20288;-77
2021/10/09 05:22:14;;;;;;;22.80;13.53;;;;;;;;;;5096079;28;20221;-77
2021/10/09 05:24:41;;;;;;;23.87;14.73;;;;;;;;;;5089077;28;20286;-76
2021/10/09 05:27:09;;;;;;;19.80;12.97;;;;;;;;;;5075160;28;20612;-76
2021/10/09 05:29:36;;;;;;;22.40;13.97;;;;;;;;;;5075445;28;20206;-76
2021/10/09 05:32:06;;;;;;;21.60;14.17;;;;;;;;;;5075119;28;20624;-76
2021/10/09 05:34:33;;;;;;;23.73;15.47;;;;;;;;;;5075556;28;20203;-76
2021/10/09 05:37:02;;;;;;;24.53;15.03;;;;;;;;;;5087049;28;20198;-77
2021/10/09 05:39:29;;;;;;;23.43;14.63;;;;;;;;;;5095598;28;20296;-77
2021/10/09 05:41:57;;;;;;;21.77;13.87;;;;;;;;;;5076902;28;20237;-77
2021/10/09 05:44:24;;;;;;;21.97;14.10;;;;;;;;;;5092909;28;20285;-76
2021/10/09 05:46:51;;;;;;;23.73;14.83;;;;;;;;;;5095203;28;20199;-77
2021/10/09 05:49:18;;;;;;;24.67;14.37;;;;;;;;;;5077530;28;20299;-76
2021/10/09 05:51:54;;;;;;;24.17;15.10;;;;;;;;;;5074956;28;20195;-76
2021/10/09 05:54:26;;;;;;;25.40;14.33;;;;;;;;;;5086713;28;20319;-77
2021/10/09 05:56:59;;;;;;;24.83;14.30;;;;;;;;;;5088814;28;20209;-76
2021/10/09 05:59:46;;;;;;;23.33;15.00;;;;;;;;;;5073283;28;20584;-76
2021/10/09 06:25:02;;;;;;;22.60;14.77;;;;;;;;;;5075509;28;20223;-77
2021/10/09 06:44:31;;;;;;;14.67;10.53;;;;;;;;;;5088662;28;20232;-76
2021/10/09 07:00:40;;;;;;;15.53;10.40;;;;;;;;;;5030559;28;20297;-79
2021/10/09 07:03:07;;;;;;;13.03;9.90;;;;;;;;;;5030192;28;20224;-79
2021/10/09 07:05:40;;;;;;;13.87;9.33;;;;;;;;;;5029503;28;20645;-78
2021/10/09 07:08:09;;;;;;;13.23;8.50;;;;;;;;;;5030286;28;20213;-78
2021/10/09 07:10:38;;;;;;;12.37;8.87;;;;;;;;;;5029927;28;20207;-80
2021/10/09 07:13:05;;;;;;;12.40;9.53;;;;;;;;;;5022938;28;20661;-78
2021/10/09 07:15:33;;;;;;;10.60;8.73;;;;;;;;;;5030647;28;20282;-79
2021/10/09 07:18:01;;;;;;;11.77;8.43;;;;;;;;;;5029552;28;20280;-79
2021/10/09 07:20:28;;;;;;;11.40;8.17;;;;;;;;;;5020657;28;20719;-79
2021/10/09 07:22:56;;;;;;;10.17;7.90;;;;;;;;;;5028452;28;20752;-79
2021/10/09 07:25:23;;;;;;;14.03;9.63;;;;;;;;;;5025528;28;21451;-78
2021/10/09 07:27:53;;;;;;;11.23;9.17;;;;;;;;;;5026316;28;20232;-77
2021/10/09 07:30:21;;;;;;;14.97;10.23;;;;;;;;;;5075222;28;20281;-77
2021/10/09 07:32:48;;;;;;;12.77;10.10;;;;;;;;;;5091399;28;20289;-76
2021/10/09 07:35:17;;;;;;;14.05;10.00;;;;;;;;;;5091551;28;20323;-76
2021/10/09 07:37:44;;;;;;;12.18;9.68;;;;;;;;;;5089596;28;20195;-76
2021/10/09 07:40:12;;;;;;;13.02;9.63;;;;;;;;;;5077539;28;20705;-77
2021/10/09 07:42:39;;;;;;;10.90;9.50;;;;;;;;;;5087796;28;20254;-77
2021/10/09 07:45:32;;;;;;;10.27;8.73;;;;;;;;;;5080322;28;20221;-78
2021/10/09 07:47:59;;;;;;;10.35;9.10;;;;;;;;;;5077075;28;20290;-77
2021/10/09 07:50:28;;;;;;;11.25;8.90;;;;;;;;;;5092038;28;20238;-78
2021/10/09 07:52:55;;;;;;;10.57;9.30;;;;;;;;;;5089361;28;20705;-78
2021/10/09 07:55:26;;;;;;;11.65;9.48;;;;;;;;;;5091287;28;20344;-78
2021/10/09 07:57:54;;;;;;;10.23;8.73;;;;;;;;;;5082429;28;20226;-78
2021/10/09 08:00:21;;;;;;;10.48;9.32;;;;;;;;;;5091117;28;20285;-78
2021/10/09 08:02:49;;;;;;;13.35;10.32;;;;;;;;;;5086711;28;20741;-78
2021/10/09 08:05:16;;;;;;;12.00;10.18;;;;;;;;;;5084305;28;20199;-78
2021/10/09 08:07:44;;;;;;;12.80;10.25;;;;;;;;;;5074400;28;20226;-78
2021/10/09 08:10:12;;;;;;;11.05;9.70;;;;;;;;;;5072027;28;20286;-78
2021/10/09 08:12:40;;;;;;;14.07;11.07;;;;;;;;;;5077892;28;20282;-77
2021/10/09 08:15:07;;;;;;;11.63;10.10;;;;;;;;;;5072444;28;20514;-78
2021/10/09 08:17:34;;;;;;;12.38;10.07;;;;;;;;;;5081763;28;20334;-77
2021/10/09 08:20:01;;;;;;;11.85;10.65;;;;;;;;;;5091344;28;20222;-78
2021/10/09 08:22:30;;;;;;;14.60;12.93;;;;;;;;;;5073187;28;20255;-77
2021/10/09 08:25:18;;;;;;;11.90;10.32;;;;;;;;;;5076364;28;20191;-77
2021/10/09 08:36:15;;;;;;;11.10;9.88;;;;;;;;;;5089149;28;20236;-77
2021/10/09 08:38:51;;;;;;;9.95;8.95;;;;;;;;;;5085488;28;20309;-76
2021/10/09 08:41:20;;;;;;;11.65;10.25;;;;;;;;;;5086806;28;20241;-76
2021/10/09 08:43:48;;;;;;;10.93;9.82;;;;;;;;;;5087396;28;20876;-76
2021/10/09 08:46:19;;;;;;;12.30;10.60;;;;;;;;;;5088692;28;20198;-77
2021/10/09 08:48:48;;;;;;;11.90;10.60;;;;;;;;;;5078622;28;20218;-77
2021/10/09 08:51:19;;;;;;;12.32;10.95;;;;;;;;;;5089116;28;20198;-76
2021/10/09 08:53:47;;;;;;;14.40;10.82;;;;;;;;;;5084306;28;20290;-76
2021/10/09 08:56:28;;;;;;;14.35;10.98;;;;;;;;;;5083679;28;20281;-77
2021/10/09 08:59:07;;;;;;;12.93;11.18;;;;;;;;;;5085634;28;20202;-77
2021/10/09 09:01:40;;;;;;;13.15;11.63;;;;;;;;;;5087473;28;20209;-77
2021/10/09 09:04:23;;;;;;;15.90;11.65;;;;;;;;;;5084599;28;20224;-77
2021/10/09 09:35:17;;;;;;;12.30;10.80;;;;;;;;;;5031401;28;20206;-80
2021/10/09 09:40:36;;;;;;;12.25;10.30;;;;;;;;;;4980203;28;20236;-78
2021/10/09 09:43:03;;;;;;;11.32;10.23;;;;;;;;;;4982341;28;20221;-79
2021/10/09 09:45:30;;;;;;;15.38;10.40;;;;;;;;;;4981582;28;20252;-78
2021/10/09 09:48:00;;;;;;;11.20;10.00;;;;;;;;;;4988162;28;20281;-78
2021/10/09 09:50:28;;;;;;;12.23;9.88;;;;;;;;;;4978045;28;20202;-78
2021/10/09 09:52:56;;;;;;;10.98;9.73;;;;;;;;;;5014958;28;20763;-79
2021/10/09 09:55:23;;;;;;;10.38;8.93;;;;;;;;;;5039720;28;20200;-79
2021/10/09 09:57:53;;;;;;;9.43;8.45;;;;;;;;;;5038625;28;20295;-80
2021/10/09 10:00:21;;;;;;;11.13;9.00;;;;;;;;;;5040177;28;20215;-79
2021/10/09 10:02:50;;;;;;;10.05;8.82;;;;;;;;;;5050154;28;20258;-79
2021/10/09 10:05:19;;;;;;;11.02;8.93;;;;;;;;;;5049947;28;20200;-79
2021/10/09 10:07:48;;;;;;;9.15;8.10;;;;;;;;;;5040604;28;20238;-77
2021/10/09 10:10:16;;;;;;;11.25;7.80;;;;;;;;;;5037091;28;20209;-78
2021/10/09 10:12:43;;;;;;;10.40;9.27;;;;;;;;;;5037424;28;20650;-79
2021/10/09 10:15:11;;;;;;;9.43;8.15;;;;;;;;;;5050764;28;20243;-77
2021/10/09 10:17:39;;;;;;;9.77;8.77;;;;;;;;;;5055394;28;20209;-78
2021/10/09 10:20:08;;;;;;;9.05;7.15;;;;;;;;;;5072829;28;20290;-78
2021/10/09 10:22:54;;;;;;;9.32;6.90;;;;;;;;;;5073362;28;20611;-79
2021/10/09 10:25:33;;;;;;;8.25;6.88;;;;;;;;;;5078364;28;20203;-77
2021/10/09 10:28:01;;;;;;;7.72;6.80;;;;;;;;;;5073392;28;20290;-76
2021/10/09 10:30:29;;;;;;;7.10;5.93;;;;;;;;;;5086940;28;20733;-77
2021/10/09 10:33:18;;;;;;;6.25;5.65;;;;;;;;;;5073859;28;20640;-78
2021/10/09 10:35:46;;;;;;;5.93;5.10;;;;;;;;;;5071255;28;20202;-79
2021/10/09 10:38:33;;;;;;;4.75;4.35;;;;;;;;;;5090970;28;20194;-78
2021/10/09 10:41:03;;;;;;;4.72;4.32;;;;;;;;;;5089234;28;20236;-78
2021/10/09 10:43:42;;;;;;;4.50;4.10;;;;;;;;;;5075613;28;20219;-78
2021/10/09 10:46:26;;;;;;;7.45;4.90;;;;;;;;;;5072950;28;20249;-79
2021/10/09 10:48:57;;;;;;;4.43;4.03;;;;;;;;;;5073911;28;20199;-79
2021/10/09 10:51:46;;;;;;;4.00;3.60;;;;;;;;;;5076038;28;20199;-78
2021/10/09 10:54:19;;;;;;;4.88;4.10;;;;;;;;;;5075179;28;20869;-78
2021/10/09 10:57:05;;;;;;;4.25;3.80;;;;;;;;;;5076584;28;20226;-78
2021/10/09 10:59:34;;;;;;;5.07;4.40;;;;;;;;;;5084220;28;20294;-78
2021/10/09 11:02:11;;;;;;;6.82;4.00;;;;;;;;;;5082590;28;20220;-79
2021/10/09 11:04:40;;;;;;;4.38;3.97;;;;;;;;;;5080402;28;20301;-78
2021/10/09 11:07:07;;;;;;;4.93;4.20;;;;;;;;;;5080100;28;20201;-80
2021/10/09 11:09:38;;;;;;;5.57;4.18;;;;;;;;;;5075651;28;20282;-79
2021/10/09 11:12:05;;;;;;;5.80;5.10;;;;;;;;;;5090458;28;20719;-80
2021/10/09 11:14:34;;;;;;;5.55;4.93;;;;;;;;;;5084012;28;20686;-79
2021/10/09 11:17:01;;;;;;;5.43;4.72;;;;;;;;;;5078593;28;20198;-80
2021/10/09 11:19:42;;;;;;;6.82;5.32;;;;;;;;;;5088487;28;20289;-78
2021/10/09 11:22:09;;;;;;;5.90;5.30;;;;;;;;;;5073361;28;20206;-79
2021/10/09 11:24:43;;;;;;;7.03;6.30;;;;;;;;;;5091970;28;20246;-80
2021/10/09 11:27:10;;;;;;;7.47;5.90;;;;;;;;;;5092430;28;20624;-80
2021/10/09 11:29:39;;;;;;;6.05;5.32;;;;;;;;;;5074769;28;20293;-80
2021/10/09 11:32:07;;;;;;;6.18;5.15;;;;;;;;;;5082019;28;20286;-81
2021/10/09 11:34:48;;;;;;;6.97;4.32;;;;;;;;;;5081417;28;20714;-80
2021/10/09 11:37:15;;;;;;;4.20;3.72;;;;;;;;;;5072156;28;20230;-80
2021/10/09 11:39:46;;;;;;;3.55;3.25;;;;;;;;;;5081714;28;20199;-79
2021/10/09 11:42:15;;;;;;;2.63;2.40;;;;;;;;;;5073753;28;20245;-79
2021/10/09 11:44:47;;;;;;;3.03;2.67;;;;;;;;;;5079894;28;20309;-80
2021/10/09 11:55:35;;;;;;;3.70;2.70;;;;;;;;;;5072801;28;20248;-80
2021/10/09 11:58:03;;;;;;;3.13;2.60;;;;;;;;;;5075293;28;20289;-79
2021/10/09 12:00:44;;;;;;;3.85;2.80;;;;;;;;;;5081595;28;20281;-78
2021/10/09 12:03:29;;;;;;;5.30;2.88;;;;;;;;;;5087257;28;20314;-78
2021/10/09 12:05:58;;;;;;;3.42;2.95;;;;;;;;;;5090211;28;20289;-78
2021/10/09 12:08:26;;;;;;;3.70;3.20;;;;;;;;;;5081720;28;20626;-78
2021/10/09 12:11:13;;;;;;;3.38;3.08;;;;;;;;;;5082054;28;20264;-79
2021/10/09 12:13:50;;;;;;;3.90;3.00;;;;;;;;;;5089884;28;20993;-79
2021/10/09 12:16:24;;;;;;;2.95;2.63;;;;;;;;;;5087978;28;20678;-79
2021/10/09 12:18:54;;;;;;;3.33;2.78;;;;;;;;;;5079147;28;20290;-79
2021/10/09 12:21:22;;;;;;;2.47;2.28;;;;;;;;;;5077177;28;20199;-79
2021/10/09 12:23:49;;;;;;;4.07;3.30;;;;;;;;;;5090584;28;20214;-79
2021/10/09 12:26:17;;;;;;;2.95;2.63;;;;;;;;;;5077291;28;20290;-79
2021/10/09 12:29:03;;;;;;;3.13;2.83;;;;;;;;;;5081150;28;20255;-79
2021/10/09 12:31:32;;;;;;;2.80;2.42;;;;;;;;;;5077017;28;20211;-79
2021/10/09 12:33:59;;;;;;;2.92;2.35;;;;;;;;;;5087890;28;20258;-79
2021/10/09 12:36:39;;;;;;;4.38;2.20;;;;;;;;;;5084431;28;20199;-78
2021/10/09 12:39:22;;;;;;;3.33;2.55;;;;;;;;;;5084967;28;20226;-79
2021/10/09 12:41:49;;;;;;;5.60;2.40;;;;;;;;;;5081186;28;20226;-79
2021/10/09 12:44:17;;;;;;;3.10;2.70;;;;;;;;;;5085283;28;20249;-79
2021/10/09 12:46:45;;;;;;;2.40;2.20;;;;;;;;;;5077931;28;20282;-78
2021/10/09 12:49:13;;;;;;;2.70;2.50;;;;;;;;;;5089487;28;20586;-77
2021/10/09 12:51:40;;;;;;;2.85;2.30;;;;;;;;;;5090878;28;20245;-78
2021/10/09 12:54:08;;;;;;;3.47;2.45;;;;;;;;;;5089465;28;20285;-79
2021/10/09 12:56:35;;;;;;;3.00;2.30;;;;;;;;;;5090971;28;20289;-79
2021/10/09 12:59:02;;;;;;;2.85;2.65;;;;;;;;;;5081023;28;20281;-79
2021/10/09 13:01:30;;;;;;;4.68;2.58;;;;;;;;;;5091658;28;20277;-79
2021/10/09 13:03:59;;;;;;;3.17;2.88;;;;;;;;;;5085610;28;20302;-79
2021/10/09 13:06:26;;;;;;;4.03;2.92;;;;;;;;;;5087767;28;20289;-79
2021/10/09 13:08:53;;;;;;;4.32;3.13;;;;;;;;;;5078195;28;20293;-78
2021/10/09 13:11:24;;;;;;;3.22;2.92;;;;;;;;;;5082384;28;20231;-79
2021/10/09 13:13:51;;;;;;;2.72;2.53;;;;;;;;;;5081165;28;20194;-79
2021/10/09 13:16:18;;;;;;;2.63;2.40;;;;;;;;;;5073432;28;20249;-79
2021/10/09 13:18:46;;;;;;;2.75;2.40;;;;;;;;;;5090260;28;20737;-79
2021/10/09 13:21:14;;;;;;;3.53;2.53;;;;;;;;;;5073267;28;20226;-79
2021/10/09 13:23:42;;;;;;;3.85;2.60;;;;;;;;;;5086892;28;20191;-79
2021/10/09 13:26:09;;;;;;;2.63;2.42;;;;;;;;;;5078353;28;20282;-79
2021/10/09 13:28:37;;;;;;;3.40;2.80;;;;;;;;;;5080908;28;20291;-79
2021/10/09 13:31:05;;;;;;;4.10;2.53;;;;;;;;;;5070678;28;20290;-79
2021/10/09 13:33:32;;;;;;;3.33;2.38;;;;;;;;;;5078381;28;20207;-78
2021/10/09 13:35:59;;;;;;;2.47;2.28;;;;;;;;;;5096358;28;20281;-79
2021/10/09 13:38:32;;;;;;;3.83;2.85;;;;;;;;;;5085660;28;20222;-79
2021/10/09 13:40:59;;;;;;;3.78;3.00;;;;;;;;;;5081247;28;20229;-79
2021/10/09 13:43:26;;;;;;;3.35;2.85;;;;;;;;;;5092080;28;20202;-79
2021/10/09 13:45:53;;;;;;;3.83;3.47;;;;;;;;;;5087511;28;20245;-79
2021/10/09 13:48:20;;;;;;;5.10;3.50;;;;;;;;;;5092625;28;20197;-79
2021/10/09 13:50:49;;;;;;;4.70;3.40;;;;;;;;;;5089709;28;20286;-80
2021/10/09 13:53:17;;;;;;;3.85;3.50;;;;;;;;;;5092827;28;20669;-80
2021/10/09 13:55:45;;;;;;;3.75;3.35;;;;;;;;;;5093403;28;20278;-80
2021/10/09 13:58:13;;;;;;;4.30;3.70;;;;;;;;;;5085544;28;20230;-79
2021/10/09 14:00:40;;;;;;;3.97;3.33;;;;;;;;;;5093844;28;20289;-80
2021/10/09 14:03:08;;;;;;;3.63;3.25;;;;;;;;;;5082972;28;20625;-79
2021/10/09 14:05:36;;;;;;;4.20;3.80;;;;;;;;;;5091165;28;20218;-79
2021/10/09 14:08:03;;;;;;;4.40;3.90;;;;;;;;;;5075486;28;20589;-79
2021/10/09 14:10:31;;;;;;;4.38;3.97;;;;;;;;;;5073629;28;20237;-79
2021/10/09 14:12:59;;;;;;;5.15;3.88;;;;;;;;;;5085353;28;20750;-80
2021/10/09 14:15:27;;;;;;;4.25;3.85;;;;;;;;;;5090557;28;20630;-80
2021/10/09 14:17:54;;;;;;;4.60;4.20;;;;;;;;;;5089289;28;20206;-80
2021/10/09 14:20:21;;;;;;;5.03;4.45;;;;;;;;;;5084477;28;20222;-79
2021/10/09 14:22:49;;;;;;;5.53;4.50;;;;;;;;;;5092072;28;20237;-79
2021/10/09 14:25:16;;;;;;;4.05;3.60;;;;;;;;;;5086711;28;20766;-79
2021/10/09 14:27:44;;;;;;;5.10;3.42;;;;;;;;;;5097024;28;20229;-79
2021/10/09 14:30:13;;;;;;;4.07;3.67;;;;;;;;;;5088174;28;20224;-79
2021/10/09 14:32:42;;;;;;;5.72;4.25;;;;;;;;;;5081339;28;20638;-80
2021/10/09 14:35:09;;;;;;;4.45;3.53;;;;;;;;;;5082200;28;20229;-80
2021/10/09 14:37:36;;;;;;;4.20;3.80;;;;;;;;;;5091596;28;20307;-80
2021/10/09 14:40:04;;;;;;;5.88;4.55;;;;;;;;;;5093875;28;20233;-80
2021/10/09 14:42:31;;;;;;;4.55;3.95;;;;;;;;;;5094318;28;20230;-80
2021/10/09 14:44:58;;;;;;;5.18;3.92;;;;;;;;;;5094040;28;20229;-79
2021/10/09 14:47:41;;;;;;;4.35;3.50;;;;;;;;;;5092565;28;20229;-79
2021/10/09 14:50:16;;;;;;;3.80;3.40;;;;;;;;;;5093126;28;20708;-80
2021/10/09 14:52:51;;;;;;;4.43;3.50;;;;;;;;;;5090723;28;20296;-80
2021/10/09 14:55:41;;;;;;;5.82;3.65;;;;;;;;;;5075949;28;20273;-81
2021/10/09 15:20:06;;;;;;;2.70;2.50;;;;;;;;;;5090967;27;20205;-79
2021/10/09 15:22:34;;;;;;;3.45;2.40;;;;;;;;;;5089853;28;20207;-81
2021/10/09 15:25:02;;;;;;;3.25;2.95;;;;;;;;;;5082686;28;20297;-81
2021/10/09 15:27:29;;;;;;;2.72;2.40;;;;;;;;;;5088827;28;20224;-81
2021/10/09 15:29:56;;;;;;;2.75;2.50;;;;;;;;;;5081881;28;20238;-80
2021/10/09 15:32:23;;;;;;;2.78;2.22;;;;;;;;;;5073172;28;20295;-80
2021/10/09 15:34:51;;;;;;;9.50;2.20;;;;;;;;;;5075303;28;20218;-81
2021/10/09 15:37:19;;;;;;;3.33;1.85;;;;;;;;;;5093399;28;20281;-80
2021/10/09 15:39:47;;;;;;;3.10;2.20;;;;;;;;;;5092186;28;20734;-80
2021/10/09 15:42:14;;;;;;;3.33;2.00;;;;;;;;;;5093010;28;20245;-81
2021/10/09 15:44:42;;;;;;;3.33;1.98;;;;;;;;;;5091556;28;20222;-81
2021/10/09 15:47:09;;;;;;;2.40;1.95;;;;;;;;;;5093610;28;20202;-81
2021/10/09 15:49:36;;;;;;;2.05;1.83;;;;;;;;;;5093494;28;20293;-81
2021/10/09 15:52:04;;;;;;;2.58;1.85;;;;;;;;;;5093285;28;20289;-80
2021/10/09 15:54:32;;;;;;;2.28;2.08;;;;;;;;;;5093441;28;20289;-80
2021/10/09 15:56:59;;;;;;;1.92;1.83;;;;;;;;;;5092376;28;20281;-80
2021/10/09 15:59:27;;;;;;;2.30;2.10;;;;;;;;;;5086628;28;20245;-81
2021/10/09 16:01:54;;;;;;;4.05;2.40;;;;;;;;;;5072472;28;20261;-81
2021/10/09 16:04:21;;;;;;;2.95;2.30;;;;;;;;;;5085240;28;20233;-81
2021/10/09 16:06:52;;;;;;;2.50;2.25;;;;;;;;;;5074887;28;20633;-80
2021/10/09 16:09:20;;;;;;;2.95;2.40;;;;;;;;;;5078704;28;20552;-81
2021/10/09 16:11:48;;;;;;;3.40;2.20;;;;;;;;;;5072395;28;20286;-81
2021/10/09 16:14:15;;;;;;;3.17;2.70;;;;;;;;;;5074802;28;20670;-80
2021/10/09 16:16:42;;;;;;;3.33;2.70;;;;;;;;;;5093021;28;20224;-80
2021/10/09 16:19:10;;;;;;;3.63;2.70;;;;;;;;;;5092151;28;20757;-80
2021/10/09 16:21:37;;;;;;;3.20;2.90;;;;;;;;;;5080757;28;20313;-79
2021/10/09 16:24:04;;;;;;;4.53;3.42;;;;;;;;;;5082561;28;20290;-79
2021/10/09 16:26:31;;;;;;;3.70;3.08;;;;;;;;;;5090921;28;20344;-79
2021/10/09 16:29:00;;;;;;;3.83;3.15;;;;;;;;;;5075233;28;20223;-80
2021/10/09 16:31:29;;;;;;;4.43;3.85;;;;;;;;;;5078071;28;20278;-80
2021/10/09 16:33:57;;;;;;;4.45;4.05;;;;;;;;;;5075543;28;20190;-80
2021/10/09 16:36:24;;;;;;;6.88;4.68;;;;;;;;;;5084543;28;20290;-80
2021/10/09 16:38:51;;;;;;;5.95;4.72;;;;;;;;;;5087564;28;20286;-83
2021/10/09 16:41:20;;;;;;;5.28;4.50;;;;;;;;;;5082355;28;20276;-79
2021/10/09 16:43:47;;;;;;;5.00;4.32;;;;;;;;;;5076222;28;20203;-79
2021/10/09 16:46:15;;;;;;;5.53;4.60;;;;;;;;;;5081861;28;20268;-80
2021/10/09 16:48:43;;;;;;;5.63;4.60;;;;;;;;;;5100489;28;20248;-79
2021/10/09 16:51:10;;;;;;;6.45;4.82;;;;;;;;;;5103355;28;20617;-79
2021/10/09 16:53:37;;;;;;;6.90;5.22;;;;;;;;;;5103942;28;20597;-79